sensor_id;sensor_type;location;lat;lon;timestamp;P1;durP1;ratioP1;P2;durP2;ratioP2
15526;SDS011;7865;50.918;4.510;2024-02-23T00:02:18;3.57;;;0.63;;
15526;SDS011;7865;50.918;4.510;2024-02-23T00:07:19;2.20;;;0.80;;
15526;SDS011;7865;50.918;4.510;2024-02-23T00:12:21;3.07;;;0.80;;
15526;SDS011;7865;50.918;4.510;2024-02-23T00:17:22;1.90;;;0.60;;
15526;SDS011;7865;50.918;4.510;2024-02-23T00:22:24;3.63;;;1.40;;
15526;SDS011;7865;50.918;4.510;2024-02-23T00:27:26;5.73;;;1.10;;
15526;SDS011;7865;50.918;4.510;2024-02-23T00:32:27;2.57;;;0.80;;
15526;SDS011;7865;50.918;4.510;2024-02-23T00:37:28;2.73;;;0.60;;
15526;SDS011;7865;50.918;4.510;2024-02-23T00:42:30;2.17;;;0.80;;
15526;SDS011;7865;50.918;4.510;2024-02-23T00:47:32;0.83;;;0.50;;
15526;SDS011;7865;50.918;4.510;2024-02-23T00:52:33;3.83;;;0.90;;
15526;SDS011;7865;50.918;4.510;2024-02-23T00:57:35;4.80;;;0.80;;
15526;SDS011;7865;50.918;4.510;2024-02-23T01:02:37;2.80;;;0.80;;
15526;SDS011;7865;50.918;4.510;2024-02-23T01:07:38;5.63;;;0.80;;
15526;SDS011;7865;50.918;4.510;2024-02-23T01:12:39;5.07;;;0.80;;
15526;SDS011;7865;50.918;4.510;2024-02-23T01:17:40;5.10;;;2.50;;
15526;SDS011;7865;50.918;4.510;2024-02-23T01:22:42;3.10;;;0.97;;
15526;SDS011;7865;50.918;4.510;2024-02-23T01:27:43;3.00;;;0.77;;
15526;SDS011;7865;50.918;4.510;2024-02-23T01:32:47;1.60;;;0.90;;
15526;SDS011;7865;50.918;4.510;2024-02-23T01:37:49;1.07;;;0.73;;
15526;SDS011;7865;50.918;4.510;2024-02-23T01:42:59;2.80;;;0.60;;
15526;SDS011;7865;50.918;4.510;2024-02-23T01:48:05;3.10;;;0.80;;
15526;SDS011;7865;50.918;4.510;2024-02-23T01:53:07;5.63;;;1.00;;
15526;SDS011;7865;50.918;4.510;2024-02-23T01:58:08;2.80;;;1.17;;
15526;SDS011;7865;50.918;4.510;2024-02-23T02:03:09;2.67;;;0.90;;
15526;SDS011;7865;50.918;4.510;2024-02-23T02:08:13;3.10;;;0.97;;
15526;SDS011;7865;50.918;4.510;2024-02-23T02:13:15;1.80;;;0.70;;
15526;SDS011;7865;50.918;4.510;2024-02-23T02:18:16;6.37;;;1.47;;
15526;SDS011;7865;50.918;4.510;2024-02-23T02:23:18;6.77;;;1.47;;
15526;SDS011;7865;50.918;4.510;2024-02-23T02:28:20;5.23;;;1.40;;
15526;SDS011;7865;50.918;4.510;2024-02-23T02:33:21;4.50;;;1.27;;
15526;SDS011;7865;50.918;4.510;2024-02-23T02:38:23;4.70;;;1.60;;
15526;SDS011;7865;50.918;4.510;2024-02-23T02:43:24;9.87;;;2.00;;
15526;SDS011;7865;50.918;4.510;2024-02-23T02:48:25;9.00;;;1.73;;
15526;SDS011;7865;50.918;4.510;2024-02-23T02:53:27;6.60;;;1.50;;
15526;SDS011;7865;50.918;4.510;2024-02-23T02:58:28;5.60;;;2.10;;
15526;SDS011;7865;50.918;4.510;2024-02-23T03:03:29;8.20;;;2.03;;
15526;SDS011;7865;50.918;4.510;2024-02-23T03:08:30;8.20;;;2.10;;
15526;SDS011;7865;50.918;4.510;2024-02-23T03:13:32;9.73;;;2.93;;
15526;SDS011;7865;50.918;4.510;2024-02-23T03:18:33;5.93;;;2.13;;
15526;SDS011;7865;50.918;4.510;2024-02-23T03:23:34;4.67;;;1.30;;
15526;SDS011;7865;50.918;4.510;2024-02-23T03:28:35;7.23;;;2.00;;
15526;SDS011;7865;50.918;4.510;2024-02-23T03:33:36;5.43;;;1.50;;
15526;SDS011;7865;50.918;4.510;2024-02-23T03:38:38;5.03;;;2.13;;
15526;SDS011;7865;50.918;4.510;2024-02-23T03:43:39;5.73;;;1.33;;
15526;SDS011;7865;50.918;4.510;2024-02-23T03:48:40;6.43;;;1.87;;
15526;SDS011;7865;50.918;4.510;2024-02-23T03:53:41;7.57;;;1.77;;
15526;SDS011;7865;50.918;4.510;2024-02-23T03:58:42;7.70;;;2.10;;
15526;SDS011;7865;50.918;4.510;2024-02-23T04:03:44;4.13;;;1.57;;
15526;SDS011;7865;50.918;4.510;2024-02-23T04:08:45;7.70;;;2.17;;
15526;SDS011;7865;50.918;4.510;2024-02-23T04:13:50;3.73;;;1.60;;
15526;SDS011;7865;50.918;4.510;2024-02-23T04:18:53;4.77;;;1.60;;
15526;SDS011;7865;50.918;4.510;2024-02-23T04:23:55;7.37;;;2.23;;
15526;SDS011;7865;50.918;4.510;2024-02-23T04:28:56;6.30;;;1.60;;
15526;SDS011;7865;50.918;4.510;2024-02-23T04:33:57;9.43;;;1.90;;
15526;SDS011;7865;50.918;4.510;2024-02-23T04:38:58;7.20;;;2.30;;
15526;SDS011;7865;50.918;4.510;2024-02-23T04:43:59;6.80;;;1.70;;
15526;SDS011;7865;50.918;4.510;2024-02-23T04:49:03;9.23;;;2.30;;
15526;SDS011;7865;50.918;4.510;2024-02-23T04:54:05;6.87;;;1.87;;
15526;SDS011;7865;50.918;4.510;2024-02-23T04:59:06;10.30;;;2.23;;
15526;SDS011;7865;50.918;4.510;2024-02-23T05:04:08;8.10;;;1.53;;
15526;SDS011;7865;50.918;4.510;2024-02-23T05:09:09;4.60;;;2.53;;
15526;SDS011;7865;50.918;4.510;2024-02-23T05:14:10;3.90;;;1.43;;
15526;SDS011;7865;50.918;4.510;2024-02-23T05:19:11;8.43;;;1.63;;
15526;SDS011;7865;50.918;4.510;2024-02-23T05:24:12;7.13;;;1.67;;
15526;SDS011;7865;50.918;4.510;2024-02-23T05:29:14;6.50;;;1.23;;
15526;SDS011;7865;50.918;4.510;2024-02-23T05:34:18;3.73;;;1.00;;
15526;SDS011;7865;50.918;4.510;2024-02-23T05:39:20;5.23;;;1.40;;
15526;SDS011;7865;50.918;4.510;2024-02-23T05:44:21;3.80;;;1.17;;
15526;SDS011;7865;50.918;4.510;2024-02-23T05:49:23;7.77;;;1.40;;
15526;SDS011;7865;50.918;4.510;2024-02-23T05:54:24;7.83;;;1.60;;
15526;SDS011;7865;50.918;4.510;2024-02-23T05:59:25;3.90;;;1.10;;
15526;SDS011;7865;50.918;4.510;2024-02-23T06:04:26;12.53;;;2.10;;
15526;SDS011;7865;50.918;4.510;2024-02-23T06:09:29;11.30;;;2.20;;
15526;SDS011;7865;50.918;4.510;2024-02-23T06:14:30;2.27;;;0.97;;
15526;SDS011;7865;50.918;4.510;2024-02-23T06:19:31;10.73;;;1.40;;
15526;SDS011;7865;50.918;4.510;2024-02-23T06:24:33;7.00;;;1.23;;
15526;SDS011;7865;50.918;4.510;2024-02-23T06:29:35;3.27;;;1.03;;
15526;SDS011;7865;50.918;4.510;2024-02-23T06:34:36;7.53;;;1.60;;
15526;SDS011;7865;50.918;4.510;2024-02-23T06:39:37;6.50;;;1.47;;
15526;SDS011;7865;50.918;4.510;2024-02-23T06:44:38;4.67;;;1.03;;
15526;SDS011;7865;50.918;4.510;2024-02-23T06:49:43;12.80;;;1.63;;
15526;SDS011;7865;50.918;4.510;2024-02-23T06:54:44;9.87;;;1.47;;
15526;SDS011;7865;50.918;4.510;2024-02-23T06:59:46;7.90;;;1.60;;
15526;SDS011;7865;50.918;4.510;2024-02-23T07:04:47;8.37;;;1.70;;
15526;SDS011;7865;50.918;4.510;2024-02-23T07:09:48;10.63;;;2.07;;
15526;SDS011;7865;50.918;4.510;2024-02-23T07:14:49;3.53;;;1.37;;
15526;SDS011;7865;50.918;4.510;2024-02-23T07:19:50;5.30;;;1.07;;
15526;SDS011;7865;50.918;4.510;2024-02-23T07:24:52;7.93;;;1.50;;
15526;SDS011;7865;50.918;4.510;2024-02-23T07:29:53;5.70;;;1.70;;
15526;SDS011;7865;50.918;4.510;2024-02-23T07:34:54;7.27;;;1.20;;
15526;SDS011;7865;50.918;4.510;2024-02-23T07:39:55;8.37;;;2.07;;
15526;SDS011;7865;50.918;4.510;2024-02-23T07:44:56;9.33;;;1.97;;
15526;SDS011;7865;50.918;4.510;2024-02-23T07:49:58;6.03;;;1.63;;
15526;SDS011;7865;50.918;4.510;2024-02-23T07:54:59;6.17;;;1.43;;
15526;SDS011;7865;50.918;4.510;2024-02-23T08:00:03;4.73;;;1.00;;
15526;SDS011;7865;50.918;4.510;2024-02-23T08:05:12;8.97;;;1.70;;
15526;SDS011;7865;50.918;4.510;2024-02-23T08:10:13;8.03;;;1.17;;
15526;SDS011;7865;50.918;4.510;2024-02-23T08:15:15;8.27;;;2.03;;
15526;SDS011;7865;50.918;4.510;2024-02-23T08:20:16;10.07;;;2.33;;
15526;SDS011;7865;50.918;4.510;2024-02-23T08:25:17;4.60;;;1.70;;
15526;SDS011;7865;50.918;4.510;2024-02-23T08:30:19;3.20;;;0.60;;
15526;SDS011;7865;50.918;4.510;2024-02-23T08:35:21;5.23;;;1.70;;
15526;SDS011;7865;50.918;4.510;2024-02-23T08:40:22;3.23;;;1.20;;
15526;SDS011;7865;50.918;4.510;2024-02-23T08:45:23;4.10;;;1.20;;
15526;SDS011;7865;50.918;4.510;2024-02-23T08:50:24;7.30;;;1.40;;
15526;SDS011;7865;50.918;4.510;2024-02-23T08:55:26;3.20;;;1.20;;
15526;SDS011;7865;50.918;4.510;2024-02-23T09:00:27;5.83;;;1.23;;
15526;SDS011;7865;50.918;4.510;2024-02-23T09:05:28;5.17;;;2.13;;
15526;SDS011;7865;50.918;4.510;2024-02-23T09:10:29;8.13;;;1.27;;
15526;SDS011;7865;50.918;4.510;2024-02-23T09:15:30;10.27;;;1.63;;
15526;SDS011;7865;50.918;4.510;2024-02-23T09:20:32;6.80;;;1.27;;
15526;SDS011;7865;50.918;4.510;2024-02-23T09:25:33;4.40;;;1.33;;
15526;SDS011;7865;50.918;4.510;2024-02-23T09:30:34;6.20;;;1.60;;
15526;SDS011;7865;50.918;4.510;2024-02-23T09:35:35;6.43;;;2.07;;
15526;SDS011;7865;50.918;4.510;2024-02-23T09:40:37;10.30;;;1.47;;
15526;SDS011;7865;50.918;4.510;2024-02-23T09:45:39;6.60;;;1.13;;
15526;SDS011;7865;50.918;4.510;2024-02-23T09:50:41;2.90;;;1.30;;
15526;SDS011;7865;50.918;4.510;2024-02-23T09:55:43;7.10;;;1.83;;
15526;SDS011;7865;50.918;4.510;2024-02-23T10:00:45;6.07;;;1.63;;
15526;SDS011;7865;50.918;4.510;2024-02-23T10:05:47;4.40;;;1.20;;
15526;SDS011;7865;50.918;4.510;2024-02-23T10:10:48;6.37;;;1.63;;
15526;SDS011;7865;50.918;4.510;2024-02-23T10:15:52;3.83;;;1.77;;
15526;SDS011;7865;50.918;4.510;2024-02-23T10:21:17;4.93;;;2.03;;
15526;SDS011;7865;50.918;4.510;2024-02-23T10:26:18;3.83;;;1.43;;
15526;SDS011;7865;50.918;4.510;2024-02-23T10:31:24;5.37;;;1.53;;
15526;SDS011;7865;50.918;4.510;2024-02-23T10:36:26;3.97;;;1.50;;
15526;SDS011;7865;50.918;4.510;2024-02-23T10:41:31;3.50;;;1.30;;
15526;SDS011;7865;50.918;4.510;2024-02-23T10:46:35;6.87;;;1.60;;
15526;SDS011;7865;50.918;4.510;2024-02-23T10:51:38;2.73;;;0.73;;
15526;SDS011;7865;50.918;4.510;2024-02-23T10:56:41;7.30;;;2.00;;
15526;SDS011;7865;50.918;4.510;2024-02-23T11:01:42;7.27;;;1.40;;
15526;SDS011;7865;50.918;4.510;2024-02-23T11:06:50;11.47;;;2.33;;
15526;SDS011;7865;50.918;4.510;2024-02-23T11:11:55;7.73;;;1.60;;
15526;SDS011;7865;50.918;4.510;2024-02-23T11:17:00;9.80;;;2.13;;
15526;SDS011;7865;50.918;4.510;2024-02-23T11:22:02;3.57;;;1.30;;
15526;SDS011;7865;50.918;4.510;2024-02-23T11:27:04;5.03;;;1.33;;
15526;SDS011;7865;50.918;4.510;2024-02-23T11:32:17;8.73;;;1.83;;
15526;SDS011;7865;50.918;4.510;2024-02-23T11:37:18;3.97;;;1.33;;
15526;SDS011;7865;50.918;4.510;2024-02-23T11:42:19;6.53;;;1.70;;
15526;SDS011;7865;50.918;4.510;2024-02-23T11:47:24;5.90;;;2.57;;
15526;SDS011;7865;50.918;4.510;2024-02-23T11:52:26;5.13;;;1.80;;
15526;SDS011;7865;50.918;4.510;2024-02-23T11:57:27;6.67;;;2.13;;
15526;SDS011;7865;50.918;4.510;2024-02-23T12:02:30;5.47;;;2.03;;
15526;SDS011;7865;50.918;4.510;2024-02-23T12:07:31;6.17;;;1.87;;
15526;SDS011;7865;50.918;4.510;2024-02-23T12:12:33;4.20;;;2.47;;
15526;SDS011;7865;50.918;4.510;2024-02-23T12:17:36;4.70;;;1.57;;
15526;SDS011;7865;50.918;4.510;2024-02-23T12:22:38;4.10;;;1.57;;
15526;SDS011;7865;50.918;4.510;2024-02-23T12:27:41;6.10;;;1.87;;
15526;SDS011;7865;50.918;4.510;2024-02-23T12:32:43;5.47;;;2.07;;
15526;SDS011;7865;50.918;4.510;2024-02-23T12:37:45;7.50;;;2.40;;
15526;SDS011;7865;50.918;4.510;2024-02-23T12:42:46;4.60;;;2.57;;
15526;SDS011;7865;50.918;4.510;2024-02-23T12:47:49;4.57;;;1.90;;
15526;SDS011;7865;50.918;4.510;2024-02-23T12:52:50;9.20;;;1.73;;
15526;SDS011;7865;50.918;4.510;2024-02-23T12:57:53;4.10;;;1.53;;
15526;SDS011;7865;50.918;4.510;2024-02-23T13:02:54;8.00;;;1.83;;
15526;SDS011;7865;50.918;4.510;2024-02-23T13:07:55;2.30;;;1.23;;
15526;SDS011;7865;50.918;4.510;2024-02-23T13:12:56;3.57;;;1.40;;
15526;SDS011;7865;50.918;4.510;2024-02-23T13:17:57;2.10;;;0.90;;
15526;SDS011;7865;50.918;4.510;2024-02-23T13:22:59;4.37;;;1.37;;
15526;SDS011;7865;50.918;4.510;2024-02-23T13:28:01;2.47;;;1.40;;
15526;SDS011;7865;50.918;4.510;2024-02-23T13:33:03;5.20;;;1.57;;
15526;SDS011;7865;50.918;4.510;2024-02-23T13:38:04;2.93;;;1.50;;
15526;SDS011;7865;50.918;4.510;2024-02-23T13:43:05;5.73;;;1.10;;
15526;SDS011;7865;50.918;4.510;2024-02-23T13:48:07;7.30;;;1.20;;
15526;SDS011;7865;50.918;4.510;2024-02-23T13:53:08;5.03;;;1.60;;
15526;SDS011;7865;50.918;4.510;2024-02-23T13:58:09;4.13;;;1.03;;
15526;SDS011;7865;50.918;4.510;2024-02-23T14:03:12;6.07;;;1.20;;
15526;SDS011;7865;50.918;4.510;2024-02-23T14:08:18;5.43;;;1.57;;
15526;SDS011;7865;50.918;4.510;2024-02-23T14:13:19;3.13;;;0.93;;
15526;SDS011;7865;50.918;4.510;2024-02-23T14:18:21;2.33;;;0.73;;
15526;SDS011;7865;50.918;4.510;2024-02-23T14:23:22;6.60;;;1.57;;
15526;SDS011;7865;50.918;4.510;2024-02-23T14:28:23;7.17;;;1.07;;
15526;SDS011;7865;50.918;4.510;2024-02-23T14:33:24;4.87;;;1.43;;
15526;SDS011;7865;50.918;4.510;2024-02-23T14:38:25;3.37;;;1.20;;
15526;SDS011;7865;50.918;4.510;2024-02-23T14:43:26;5.40;;;1.30;;
15526;SDS011;7865;50.918;4.510;2024-02-23T14:48:28;3.90;;;0.80;;
15526;SDS011;7865;50.918;4.510;2024-02-23T14:53:29;3.23;;;0.80;;
15526;SDS011;7865;50.918;4.510;2024-02-23T14:58:30;1.23;;;0.70;;
15526;SDS011;7865;50.918;4.510;2024-02-23T15:03:31;6.13;;;0.90;;
15526;SDS011;7865;50.918;4.510;2024-02-23T15:08:33;6.13;;;1.00;;
15526;SDS011;7865;50.918;4.510;2024-02-23T15:13:34;5.03;;;0.90;;
15526;SDS011;7865;50.918;4.510;2024-02-23T15:18:35;3.47;;;0.70;;
15526;SDS011;7865;50.918;4.510;2024-02-23T15:23:37;4.93;;;0.90;;
15526;SDS011;7865;50.918;4.510;2024-02-23T15:28:38;2.93;;;1.00;;
15526;SDS011;7865;50.918;4.510;2024-02-23T15:33:39;4.60;;;0.83;;
15526;SDS011;7865;50.918;4.510;2024-02-23T15:38:41;2.53;;;0.73;;
15526;SDS011;7865;50.918;4.510;2024-02-23T15:43:42;4.20;;;1.13;;
15526;SDS011;7865;50.918;4.510;2024-02-23T15:48:43;2.67;;;1.03;;
15526;SDS011;7865;50.918;4.510;2024-02-23T15:53:45;1.93;;;0.63;;
15526;SDS011;7865;50.918;4.510;2024-02-23T15:58:46;4.10;;;1.03;;
15526;SDS011;7865;50.918;4.510;2024-02-23T16:03:49;3.20;;;1.00;;
15526;SDS011;7865;50.918;4.510;2024-02-23T16:08:50;5.07;;;1.27;;
15526;SDS011;7865;50.918;4.510;2024-02-23T16:13:51;4.70;;;1.33;;
15526;SDS011;7865;50.918;4.510;2024-02-23T16:18:56;2.03;;;0.93;;
15526;SDS011;7865;50.918;4.510;2024-02-23T16:23:58;2.93;;;0.93;;
15526;SDS011;7865;50.918;4.510;2024-02-23T16:29:02;4.30;;;1.10;;
15526;SDS011;7865;50.918;4.510;2024-02-23T16:34:04;3.40;;;0.83;;
15526;SDS011;7865;50.918;4.510;2024-02-23T16:39:05;6.67;;;1.00;;
15526;SDS011;7865;50.918;4.510;2024-02-23T16:44:08;3.07;;;0.97;;
15526;SDS011;7865;50.918;4.510;2024-02-23T16:49:11;3.40;;;1.17;;
15526;SDS011;7865;50.918;4.510;2024-02-23T16:54:12;2.23;;;0.83;;
15526;SDS011;7865;50.918;4.510;2024-02-23T16:59:14;4.57;;;1.20;;
15526;SDS011;7865;50.918;4.510;2024-02-23T17:04:16;5.43;;;0.97;;
15526;SDS011;7865;50.918;4.510;2024-02-23T17:09:17;3.00;;;0.93;;
15526;SDS011;7865;50.918;4.510;2024-02-23T17:14:18;5.47;;;1.00;;
15526;SDS011;7865;50.918;4.510;2024-02-23T17:19:19;5.63;;;1.37;;
15526;SDS011;7865;50.918;4.510;2024-02-23T17:24:21;5.03;;;0.90;;
15526;SDS011;7865;50.918;4.510;2024-02-23T17:29:24;5.83;;;1.40;;
15526;SDS011;7865;50.918;4.510;2024-02-23T17:34:26;4.30;;;0.93;;
15526;SDS011;7865;50.918;4.510;2024-02-23T17:39:27;1.63;;;0.70;;
15526;SDS011;7865;50.918;4.510;2024-02-23T17:44:29;3.43;;;0.70;;
15526;SDS011;7865;50.918;4.510;2024-02-23T17:49:30;4.37;;;1.10;;
15526;SDS011;7865;50.918;4.510;2024-02-23T17:54:31;2.27;;;0.97;;
15526;SDS011;7865;50.918;4.510;2024-02-23T17:59:33;6.23;;;1.40;;
15526;SDS011;7865;50.918;4.510;2024-02-23T18:04:34;2.10;;;1.23;;
15526;SDS011;7865;50.918;4.510;2024-02-23T18:09:36;1.73;;;1.03;;
15526;SDS011;7865;50.918;4.510;2024-02-23T18:14:37;2.33;;;1.20;;
15526;SDS011;7865;50.918;4.510;2024-02-23T18:19:38;3.00;;;1.30;;
15526;SDS011;7865;50.918;4.510;2024-02-23T18:24:42;3.90;;;1.33;;
15526;SDS011;7865;50.918;4.510;2024-02-23T18:29:43;3.20;;;1.13;;
15526;SDS011;7865;50.918;4.510;2024-02-23T18:34:45;3.73;;;1.73;;
15526;SDS011;7865;50.918;4.510;2024-02-23T18:39:48;2.90;;;1.50;;
15526;SDS011;7865;50.918;4.510;2024-02-23T18:44:49;5.77;;;2.07;;
15526;SDS011;7865;50.918;4.510;2024-02-23T18:49:50;5.10;;;1.43;;
15526;SDS011;7865;50.918;4.510;2024-02-23T18:54:51;3.33;;;1.70;;
15526;SDS011;7865;50.918;4.510;2024-02-23T18:59:54;4.23;;;1.90;;
15526;SDS011;7865;50.918;4.510;2024-02-23T19:04:55;2.23;;;0.80;;
15526;SDS011;7865;50.918;4.510;2024-02-23T19:09:56;2.43;;;0.70;;
15526;SDS011;7865;50.918;4.510;2024-02-23T19:14:57;2.33;;;0.90;;
15526;SDS011;7865;50.918;4.510;2024-02-23T19:19:58;2.13;;;0.90;;
15526;SDS011;7865;50.918;4.510;2024-02-23T19:24:59;2.90;;;0.90;;
15526;SDS011;7865;50.918;4.510;2024-02-23T19:30:01;4.30;;;1.10;;
15526;SDS011;7865;50.918;4.510;2024-02-23T19:35:04;1.00;;;0.80;;
15526;SDS011;7865;50.918;4.510;2024-02-23T19:40:06;1.70;;;1.13;;
15526;SDS011;7865;50.918;4.510;2024-02-23T19:45:10;2.67;;;1.67;;
15526;SDS011;7865;50.918;4.510;2024-02-23T19:50:11;3.43;;;1.53;;
15526;SDS011;7865;50.918;4.510;2024-02-23T19:55:13;2.87;;;0.90;;
15526;SDS011;7865;50.918;4.510;2024-02-23T20:00:15;3.53;;;1.00;;
15526;SDS011;7865;50.918;4.510;2024-02-23T20:05:16;1.90;;;0.80;;
15526;SDS011;7865;50.918;4.510;2024-02-23T20:10:17;1.23;;;0.90;;
15526;SDS011;7865;50.918;4.510;2024-02-23T20:15:20;1.97;;;1.10;;
15526;SDS011;7865;50.918;4.510;2024-02-23T20:20:21;1.17;;;0.73;;
15526;SDS011;7865;50.918;4.510;2024-02-23T20:25:23;0.90;;;0.67;;
15526;SDS011;7865;50.918;4.510;2024-02-23T20:30:24;2.40;;;1.27;;
15526;SDS011;7865;50.918;4.510;2024-02-23T20:35:26;2.47;;;1.27;;
15526;SDS011;7865;50.918;4.510;2024-02-23T20:40:27;4.03;;;1.17;;
15526;SDS011;7865;50.918;4.510;2024-02-23T20:45:28;2.43;;;1.10;;
15526;SDS011;7865;50.918;4.510;2024-02-23T20:50:30;1.73;;;1.03;;
15526;SDS011;7865;50.918;4.510;2024-02-23T20:55:31;2.60;;;1.10;;
15526;SDS011;7865;50.918;4.510;2024-02-23T21:00:32;3.00;;;1.30;;
15526;SDS011;7865;50.918;4.510;2024-02-23T21:05:33;5.03;;;1.93;;
15526;SDS011;7865;50.918;4.510;2024-02-23T21:10:36;5.37;;;2.30;;
15526;SDS011;7865;50.918;4.510;2024-02-23T21:15:38;4.63;;;2.83;;
15526;SDS011;7865;50.918;4.510;2024-02-23T21:20:39;6.80;;;3.40;;
15526;SDS011;7865;50.918;4.510;2024-02-23T21:25:40;7.30;;;4.07;;
15526;SDS011;7865;50.918;4.510;2024-02-23T21:30:42;6.17;;;3.40;;
15526;SDS011;7865;50.918;4.510;2024-02-23T21:35:48;7.47;;;3.50;;
15526;SDS011;7865;50.918;4.510;2024-02-23T21:40:50;4.57;;;3.10;;
15526;SDS011;7865;50.918;4.510;2024-02-23T21:45:51;4.30;;;2.03;;
15526;SDS011;7865;50.918;4.510;2024-02-23T21:50:52;6.63;;;2.37;;
15526;SDS011;7865;50.918;4.510;2024-02-23T21:55:54;3.80;;;1.90;;
15526;SDS011;7865;50.918;4.510;2024-02-23T22:00:55;5.20;;;2.20;;
15526;SDS011;7865;50.918;4.510;2024-02-23T22:05:56;4.57;;;1.80;;
15526;SDS011;7865;50.918;4.510;2024-02-23T22:10:57;5.53;;;2.00;;
15526;SDS011;7865;50.918;4.510;2024-02-23T22:15:59;3.30;;;1.90;;
15526;SDS011;7865;50.918;4.510;2024-02-23T22:21:02;3.90;;;2.13;;
15526;SDS011;7865;50.918;4.510;2024-02-23T22:26:03;3.57;;;1.93;;
15526;SDS011;7865;50.918;4.510;2024-02-23T22:31:04;3.87;;;1.97;;
15526;SDS011;7865;50.918;4.510;2024-02-23T22:36:06;4.03;;;2.10;;
15526;SDS011;7865;50.918;4.510;2024-02-23T22:41:07;3.97;;;2.07;;
15526;SDS011;7865;50.918;4.510;2024-02-23T22:46:08;3.53;;;1.70;;
15526;SDS011;7865;50.918;4.510;2024-02-23T22:51:09;4.40;;;1.70;;
15526;SDS011;7865;50.918;4.510;2024-02-23T22:56:11;2.53;;;1.77;;
15526;SDS011;7865;50.918;4.510;2024-02-23T23:01:12;4.63;;;1.93;;
15526;SDS011;7865;50.918;4.510;2024-02-23T23:06:13;2.30;;;1.90;;
15526;SDS011;7865;50.918;4.510;2024-02-23T23:11:28;4.13;;;2.40;;
15526;SDS011;7865;50.918;4.510;2024-02-23T23:16:29;5.77;;;2.93;;
15526;SDS011;7865;50.918;4.510;2024-02-23T23:21:30;5.03;;;2.40;;
15526;SDS011;7865;50.918;4.510;2024-02-23T23:26:32;3.50;;;2.47;;
15526;SDS011;7865;50.918;4.510;2024-02-23T23:31:33;4.30;;;2.57;;
15526;SDS011;7865;50.918;4.510;2024-02-23T23:36:34;2.30;;;1.73;;
15526;SDS011;7865;50.918;4.510;2024-02-23T23:41:35;4.40;;;2.60;;
15526;SDS011;7865;50.918;4.510;2024-02-23T23:46:36;3.53;;;2.40;;
15526;SDS011;7865;50.918;4.510;2024-02-23T23:51:37;2.83;;;1.73;;
15526;SDS011;7865;50.918;4.510;2024-02-23T23:56:57;2.50;;;2.00;;
